Time;durP1;ratioP1;P1;durP2;ratioP2;P2;SDS_P1;SDS_P2;PMS_P1;PMS_P2;Temp;Humidity;BMP_temperature;BMP_pressure;BME280_temperature;BME280_humidity;BME280_pressure;Samples;Min_cycle;Max_cycle;Signal;HPM_P1;HPM_P2
2021/04/16 00:01:37;;;;;;;15.63;10.80;;;;;;;5.38;66.51;94242.51;1790055;80;21186;-53
2021/04/16 00:04:06;;;;;;;21.15;12.40;;;;;;;5.36;66.35;94242.92;1790073;80;21052;-53
2021/04/16 00:06:35;;;;;;;20.92;15.05;;;;;;;5.31;66.52;94235.84;1789685;79;21091;-53
2021/04/16 00:09:04;;;;;;;21.80;14.40;;;;;;;5.29;66.62;94239.59;1790108;80;21198;-53
2021/04/16 00:11:33;;;;;;;18.30;12.33;;;;;;;5.29;66.55;94238.23;1790020;80;21079;-52
2021/04/16 00:14:02;;;;;;;19.85;12.07;;;;;;;5.19;66.57;94236.50;1790083;80;21075;-53
2021/04/16 00:16:30;;;;;;;17.57;10.90;;;;;;;5.14;66.84;94228.84;1790103;80;21138;-54
2021/04/16 00:19:00;;;;;;;17.00;11.33;;;;;;;5.16;67.04;94230.55;1790037;78;21057;-53
2021/04/16 00:21:29;;;;;;;16.05;10.65;;;;;;;5.17;66.91;94222.53;1789996;80;22189;-54
2021/04/16 00:23:57;;;;;;;13.98;9.30;;;;;;;5.23;67.06;94222.80;1789964;80;21155;-53
2021/04/16 00:26:26;;;;;;;12.58;9.40;;;;;;;5.26;66.62;94231.66;1790088;79;21064;-53
2021/04/16 00:28:55;;;;;;;13.53;9.50;;;;;;;5.25;66.28;94228.75;1790070;80;21072;-54
2021/04/16 00:31:26;;;;;;;14.70;10.40;;;;;;;5.20;66.54;94226.38;1790019;80;21048;-53
2021/04/16 00:33:55;;;;;;;16.50;11.70;;;;;;;5.25;66.49;94225.28;1790095;80;21175;-53
2021/04/16 00:36:23;;;;;;;18.90;13.55;;;;;;;5.32;66.20;94219.64;1789979;78;21060;-53
2021/04/16 00:38:51;;;;;;;20.08;13.40;;;;;;;5.34;65.99;94214.53;1790063;80;21115;-54
2021/04/16 00:41:27;;;;;;;26.40;14.63;;;;;;;5.33;65.90;94218.45;1790059;80;21124;-52
2021/04/16 00:43:56;;;;;;;18.95;11.97;;;;;;;5.24;65.79;94219.05;1792885;78;21071;-53
2021/04/16 00:46:46;;;;;;;15.28;10.25;;;;;;;5.01;66.23;94218.42;1795909;80;21083;-52
2021/04/16 00:49:20;;;;;;;14.58;10.43;;;;;;;4.90;66.69;94213.83;1785721;80;21095;-53
2021/04/16 00:51:54;;;;;;;10.88;9.33;;;;;;;4.75;66.79;94217.30;1795903;80;21131;-54
2021/04/16 00:54:27;;;;;;;14.20;9.95;;;;;;;4.70;67.18;94211.75;1795562;79;21091;-53
2021/04/16 00:56:54;;;;;;;;;;;;;;;4.72;67.12;94214.03;1798621;79;21083;-52
2021/04/16 00:59:30;;;;;;;16.20;10.20;;;;;;;4.75;67.13;94213.21;1787262;80;21367;-53
2021/04/16 01:02:00;;;;;;;14.47;10.03;;;;;;;4.78;67.10;94206.30;1787343;79;21149;-53
2021/04/16 01:04:29;;;;;;;13.20;9.43;;;;;;;4.82;66.97;94211.06;1787333;80;21129;-55
2021/04/16 01:06:58;;;;;;;16.93;10.10;;;;;;;4.83;66.85;94205.79;1787216;79;21194;-54
2021/04/16 01:09:26;;;;;;;14.38;8.68;;;;;;;4.83;66.68;94194.89;1787280;79;21066;-54
2021/04/16 01:11:54;;;;;;;10.13;7.97;;;;;;;4.80;66.32;94193.63;1787234;80;21337;-54
2021/04/16 01:14:23;;;;;;;10.90;8.60;;;;;;;4.71;66.34;94198.88;1787251;79;21486;-53
2021/04/16 01:16:53;;;;;;;14.05;8.65;;;;;;;4.65;66.59;94196.48;1787202;79;21101;-54
2021/04/16 01:19:30;;;;;;;12.50;8.43;;;;;;;4.66;66.65;94197.44;1758919;80;21118;-53
2021/04/16 01:22:16;;;;;;;9.73;8.35;;;;;;;4.66;66.54;94198.80;1787234;80;21117;-54
2021/04/16 01:24:46;;;;;;;13.35;8.48;;;;;;;4.66;66.44;94198.02;1787272;80;21329;-52
2021/04/16 01:27:15;;;;;;;11.10;8.48;;;;;;;4.65;66.40;94198.63;1787184;79;21090;-53
2021/04/16 01:29:46;;;;;;;11.00;8.68;;;;;;;4.66;66.26;94198.02;1787172;80;21034;-53
2021/04/16 01:32:28;;;;;;;12.83;8.97;;;;;;;4.63;66.33;94199.63;1787477;79;21062;-53
2021/04/16 01:34:56;;;;;;;14.47;10.75;;;;;;;4.62;66.18;94195.36;1787373;79;21495;-55
2021/04/16 01:37:29;;;;;;;21.45;12.78;;;;;;;4.58;66.16;94196.05;1787167;80;21078;-54
2021/04/16 01:39:57;;;;;;;28.35;15.28;;;;;;;4.52;66.17;94196.38;1787272;80;21075;-53
2021/04/16 01:42:25;;;;;;;25.85;15.53;;;;;;;4.45;66.18;94193.79;1787270;79;21146;-53
2021/04/16 01:44:53;;;;;;;23.90;13.18;;;;;;;4.38;66.36;94187.14;1782567;79;21072;-54
2021/04/16 01:47:20;;;;;;;26.02;13.62;;;;;;;4.31;66.59;94187.88;1781407;79;21110;-52
2021/04/16 01:49:52;;;;;;;24.77;13.00;;;;;;;4.26;66.88;94195.94;1781368;79;21195;-55
2021/04/16 01:52:28;;;;;;;25.57;14.07;;;;;;;4.24;67.00;94192.87;1781362;80;21137;-53
2021/04/16 01:54:56;;;;;;;27.58;14.65;;;;;;;4.26;66.86;94182.33;1781435;79;21154;-53
2021/04/16 01:57:33;;;;;;;25.52;14.35;;;;;;;4.25;66.70;94187.60;1781402;80;21078;-53
2021/04/16 02:00:16;;;;;;;30.92;13.48;;;;;;;4.20;66.62;94185.98;1781406;80;21075;-53
2021/04/16 02:02:46;;;;;;;19.73;13.35;;;;;;;4.15;67.01;94184.52;1781361;80;21075;-52
2021/04/16 02:05:14;;;;;;;18.75;12.30;;;;;;;4.19;67.02;94185.20;1781303;80;21086;-53
2021/04/16 02:07:43;;;;;;;21.02;14.60;;;;;;;4.25;66.83;94180.04;1781417;80;21067;-53
2021/04/16 02:10:13;;;;;;;21.73;14.25;;;;;;;4.23;66.36;94183.17;1781389;80;21066;-53
2021/04/16 02:12:41;;;;;;;41.20;20.82;;;;;;;4.15;66.57;94174.98;1781421;79;21543;-53
2021/04/16 02:15:12;;;;;;;34.03;18.45;;;;;;;4.10;66.64;94176.85;1781396;79;21138;-55
2021/04/16 02:17:40;;;;;;;42.13;18.82;;;;;;;4.06;66.87;94172.05;1781295;80;21138;-53
2021/04/16 02:20:13;;;;;;;24.00;15.05;;;;;;;3.96;66.90;94177.70;1781402;80;21086;-54
2021/04/16 02:22:41;;;;;;;22.55;13.15;;;;;;;3.80;67.51;94178.41;1781401;80;21142;-53
2021/04/16 02:25:11;;;;;;;23.22;12.50;;;;;;;3.67;67.40;94180.20;1781398;80;21102;-53
2021/04/16 02:27:39;;;;;;;18.55;12.88;;;;;;;3.54;67.58;94168.99;1781407;80;21202;-53
2021/04/16 02:30:16;;;;;;;20.37;13.38;;;;;;;3.42;67.89;94172.91;1781292;80;21082;-54
2021/04/16 02:32:45;;;;;;;24.25;14.03;;;;;;;3.39;68.22;94170.42;1781167;80;21075;-53
2021/04/16 02:35:14;;;;;;;21.52;13.10;;;;;;;3.44;68.53;94168.58;1781373;80;21086;-54
2021/04/16 02:37:42;;;;;;;21.95;13.05;;;;;;;3.51;68.27;94170.58;1781374;79;21170;-54
2021/04/16 02:40:12;;;;;;;16.75;11.38;;;;;;;3.53;68.09;94177.73;1781471;80;21198;-53
2021/04/16 02:42:40;;;;;;;25.77;13.22;;;;;;;3.53;68.11;94177.73;1781257;79;21143;-53
2021/04/16 02:45:11;;;;;;;27.87;15.65;;;;;;;3.53;68.23;94169.57;1781237;79;21183;-54
2021/04/16 02:47:39;;;;;;;23.20;13.70;;;;;;;3.60;68.37;94168.68;1781442;80;21130;-53
2021/04/16 02:50:10;;;;;;;12.78;10.48;;;;;;;3.68;68.28;94167.38;1781532;79;21503;-54
2021/04/16 02:52:37;;;;;;;48.15;14.00;;;;;;;3.67;67.91;94169.92;1781585;80;21196;-53
2021/04/16 02:55:07;;;;;;;33.95;12.47;;;;;;;3.62;68.07;94161.65;1781444;80;21086;-54
2021/04/16 02:57:35;;;;;;;19.25;12.73;;;;;;;3.62;68.31;94169.03;1781531;79;21099;-53
2021/04/16 03:00:07;;;;;;;21.37;14.58;;;;;;;3.70;68.22;94165.01;1781490;80;21107;-53
2021/04/16 03:02:34;;;;;;;21.75;14.33;;;;;;;3.74;67.83;94167.84;1781658;80;21073;-55
2021/04/16 03:05:05;;;;;;;35.48;16.10;;;;;;;3.70;67.74;94163.65;1781618;80;21345;-54
2021/04/16 03:07:33;;;;;;;39.55;21.25;;;;;;;3.61;67.96;94166.13;1781421;79;21083;-54
2021/04/16 03:10:01;;;;;;;40.60;24.35;;;;;;;3.52;68.27;94161.24;1781456;80;21070;-54
2021/04/16 03:12:28;;;;;;;37.75;26.52;;;;;;;3.55;68.23;94167.20;1781500;80;21165;-54
2021/04/16 03:14:57;;;;;;;33.90;21.00;;;;;;;3.55;68.14;94159.65;1781559;79;21067;-54
2021/04/16 03:17:25;;;;;;;42.85;26.48;;;;;;;3.60;68.32;94157.22;1781518;79;21418;-54
2021/04/16 03:19:53;;;;;;;29.45;18.25;;;;;;;3.68;68.05;94163.30;1751216;80;21071;-54
2021/04/16 03:22:21;;;;;;;24.85;16.07;;;;;;;3.64;67.87;94163.94;1781402;79;21150;-54
2021/04/16 03:24:49;;;;;;;23.22;15.70;;;;;;;3.57;68.11;94163.50;1781490;80;21558;-54
2021/04/16 03:27:17;;;;;;;51.92;28.55;;;;;;;3.52;68.25;94164.56;1781536;80;21096;-54
2021/04/16 03:29:46;;;;;;;45.90;30.32;;;;;;;3.49;68.29;94162.08;1781528;80;21198;-55
2021/04/16 03:32:15;;;;;;;49.48;26.70;;;;;;;3.45;68.39;94155.77;1781458;79;21071;-53
2021/04/16 03:34:43;;;;;;;42.17;25.00;;;;;;;3.41;68.42;94165.94;1781439;79;21051;-54
2021/04/16 03:37:13;;;;;;;29.02;19.73;;;;;;;3.41;68.84;94159.90;1781470;80;21074;-54
2021/04/16 03:39:43;;;;;;;23.65;16.20;;;;;;;3.51;68.73;94159.70;1781498;79;21113;-53
2021/04/16 03:42:10;;;;;;;24.20;18.27;;;;;;;3.60;68.23;94159.94;1781508;79;21215;-54
2021/04/16 03:44:39;;;;;;;30.23;20.68;;;;;;;3.55;68.01;94159.05;1787894;79;21117;-53
2021/04/16 03:47:06;;;;;;;26.37;20.52;;;;;;;3.50;68.23;94159.53;1799028;79;21051;-54
2021/04/16 03:49:35;;;;;;;27.95;18.67;;;;;;;3.45;68.25;94155.77;1799049;79;21059;-54
2021/04/16 03:52:04;;;;;;;38.92;24.67;;;;;;;3.47;68.24;94152.03;1799068;79;21062;-54
2021/04/16 03:54:31;;;;;;;34.03;22.42;;;;;;;3.48;68.12;94148.91;1799074;78;21191;-53
2021/04/16 03:57:02;;;;;;;34.95;20.17;;;;;;;3.51;67.98;94153.52;1798951;79;21173;-54
2021/04/16 03:59:30;;;;;;;37.28;21.42;;;;;;;3.57;68.08;94146.41;1798999;78;21210;-54
2021/04/16 04:01:58;;;;;;;25.20;15.72;;;;;;;3.65;67.89;94150.54;1799026;79;21281;-54
2021/04/16 04:04:26;;;;;;;27.30;17.87;;;;;;;3.67;67.54;94154.36;1799043;78;21059;-54
2021/04/16 04:06:54;;;;;;;25.75;18.00;;;;;;;3.67;67.56;94157.08;1799044;79;21133;-54
2021/04/16 04:09:22;;;;;;;37.15;26.90;;;;;;;3.67;67.48;94159.80;1798974;79;21083;-52
2021/04/16 04:11:53;;;;;;;45.12;27.90;;;;;;;3.65;67.36;94151.30;1799027;79;21103;-53
2021/04/16 04:14:22;;;;;;;56.68;28.20;;;;;;;3.61;67.56;94149.23;1798997;79;21140;-53
2021/04/16 04:16:59;;;;;;;46.55;22.20;;;;;;;3.55;67.58;94146.81;1799160;79;21491;-54
2021/04/16 04:19:28;;;;;;;51.68;28.20;;;;;;;3.48;68.02;94149.66;1798849;78;21501;-54
2021/04/16 04:21:59;;;;;;;46.53;27.82;;;;;;;3.53;68.05;94149.18;1798965;79;21186;-53
2021/04/16 04:24:27;;;;;;;42.10;27.35;;;;;;;3.62;67.95;94145.33;1799015;79;21492;-54
2021/04/16 04:26:55;;;;;;;47.95;28.25;;;;;;;3.66;67.98;94143.31;1798963;79;21106;-55
2021/04/16 04:29:25;;;;;;;35.98;23.22;;;;;;;3.71;68.00;94141.45;1799029;79;21047;-54
2021/04/16 04:31:53;;;;;;;36.60;22.82;;;;;;;3.80;67.81;94144.98;1799040;79;21361;-56
2021/04/16 04:34:24;;;;;;;38.73;25.00;;;;;;;3.79;67.71;94142.87;1798965;79;21122;-54
2021/04/16 04:36:55;;;;;;;33.38;22.80;;;;;;;3.78;67.56;94150.86;1799010;79;21135;-53
2021/04/16 04:39:25;;;;;;;39.83;23.62;;;;;;;3.81;67.79;94143.22;1798976;79;21099;-53
2021/04/16 04:41:53;;;;;;;36.40;22.85;;;;;;;3.92;67.63;94138.34;1799145;79;21484;-53
2021/04/16 04:44:20;;;;;;;47.27;26.42;;;;;;;4.04;67.34;94136.94;1798528;78;21424;-55
2021/04/16 04:46:49;;;;;;;33.20;21.87;;;;;;;4.07;67.27;94143.65;1795988;80;21579;-54
2021/04/16 04:49:19;;;;;;;29.98;19.48;;;;;;;4.16;67.19;94138.42;1795923;78;21059;-54
2021/04/16 04:51:48;;;;;;;36.90;24.18;;;;;;;4.22;66.99;94141.42;1795871;78;21075;-54
2021/04/16 04:54:17;;;;;;;51.23;27.15;;;;;;;4.22;66.68;94144.14;1796035;80;21496;-51
2021/04/16 04:56:46;;;;;;;89.55;44.40;;;;;;;4.28;66.44;94141.08;1795913;80;21316;-54
2021/04/16 04:59:14;;;;;;;71.20;35.23;;;;;;;4.46;66.15;94137.38;1795797;80;21090;-52
2021/04/16 05:01:41;;;;;;;67.37;29.32;;;;;;;4.58;65.95;94142.94;1795851;80;21119;-54
2021/04/16 05:04:09;;;;;;;29.32;17.23;;;;;;;4.69;65.07;94133.94;1795792;78;21126;-53
2021/04/16 05:06:37;;;;;;;26.27;15.98;;;;;;;4.76;63.27;94136.48;1795935;80;21575;-53
2021/04/16 05:09:07;;;;;;;11.00;9.35;;;;;;;4.79;61.76;94139.72;1795863;78;21343;-55
2021/04/16 05:11:35;;;;;;;12.35;9.75;;;;;;;4.87;60.99;94134.88;1795810;79;21063;-53
2021/04/16 05:14:03;;;;;;;9.65;6.30;;;;;;;5.02;59.98;94135.49;1795836;80;21055;-54
2021/04/16 05:16:31;;;;;;;6.65;6.05;;;;;;;5.17;58.87;94139.37;1795858;80;21150;-54
2021/04/16 05:19:01;;;;;;;7.28;6.40;;;;;;;5.24;58.62;94136.50;1795821;80;21107;-53
2021/04/16 05:21:29;;;;;;;8.08;6.67;;;;;;;5.34;58.51;94139.53;1795823;78;21353;-54
2021/04/16 05:23:57;;;;;;;10.30;7.42;;;;;;;5.45;57.54;94145.50;1795870;80;21476;-55
2021/04/16 05:26:25;;;;;;;9.10;6.67;;;;;;;5.57;57.11;94142.83;1795791;80;21055;-54
2021/04/16 05:28:53;;;;;;;15.95;6.72;;;;;;;5.70;56.00;94136.84;1795746;78;21500;-56
2021/04/16 05:31:21;;;;;;;11.45;6.58;;;;;;;5.82;55.75;94143.56;1795781;78;21220;-55
2021/04/16 05:33:49;;;;;;;14.07;9.10;;;;;;;5.87;55.44;94145.17;1793555;79;21197;-54
2021/04/16 05:36:18;;;;;;;14.33;9.00;;;;;;;5.89;54.80;94132.44;1788726;79;21162;-57
2021/04/16 05:38:46;;;;;;;14.87;10.13;;;;;;;5.96;54.81;94136.36;1786317;79;21190;-57
2021/04/16 05:41:14;;;;;;;8.43;6.50;;;;;;;6.09;54.26;94139.29;1781691;79;21191;-53
2021/04/16 05:43:43;;;;;;;11.53;7.40;;;;;;;6.22;53.69;94137.95;1784282;79;21163;-55
2021/04/16 05:46:11;;;;;;;6.72;6.10;;;;;;;6.30;54.23;94140.66;1780084;79;21226;-53
2021/04/16 05:48:39;;;;;;;12.25;7.20;;;;;;;6.40;54.10;94141.72;1778079;80;21204;-56
2021/04/16 05:51:07;;;;;;;11.97;9.15;;;;;;;6.55;53.93;94143.42;1780487;79;21155;-57
2021/04/16 05:53:35;;;;;;;7.95;7.15;;;;;;;6.68;53.88;94137.38;1776685;80;21058;-54
2021/04/16 05:56:05;;;;;;;8.10;6.30;;;;;;;6.86;52.90;94141.70;1773768;80;21151;-58
2021/04/16 05:58:33;;;;;;;5.12;4.70;;;;;;;7.00;52.12;94145.33;1772396;79;21294;-55
2021/04/16 06:01:01;;;;;;;5.90;5.20;;;;;;;7.04;51.21;94139.92;1763965;78;21323;-51
2021/04/16 06:03:32;;;;;;;6.30;5.70;;;;;;;7.06;50.73;94143.59;1788454;78;21205;-55
2021/04/16 06:06:01;;;;;;;5.75;4.80;;;;;;;7.06;49.81;94142.23;1783807;78;21992;-53
2021/04/16 06:08:29;;;;;;;5.50;5.10;;;;;;;7.02;49.37;94144.29;1761401;79;21219;-58
2021/04/16 06:10:59;;;;;;;9.50;7.42;;;;;;;6.98;49.90;94138.95;1786076;78;22515;-54
2021/04/16 06:13:28;;;;;;;5.05;4.65;;;;;;;7.02;50.10;94142.92;1791485;78;20991;-55
2021/04/16 06:15:57;;;;;;;8.93;7.28;;;;;;;7.07;50.15;94141.03;1771263;79;22033;-55
2021/04/16 06:18:25;;;;;;;7.87;7.05;;;;;;;7.14;49.84;94142.94;1767263;79;21119;-56
2021/04/16 06:20:53;;;;;;;7.87;7.08;;;;;;;7.19;49.21;94134.92;1793044;78;21309;-57
2021/04/16 06:23:21;;;;;;;6.45;5.58;;;;;;;7.21;49.52;94140.73;1767527;79;21199;-57
2021/04/16 06:25:49;;;;;;;11.08;7.35;;;;;;;7.26;49.16;94141.55;1782694;78;21570;-58
2021/04/16 06:28:17;;;;;;;8.95;7.75;;;;;;;7.37;49.70;94144.68;1800168;78;21474;-58
2021/04/16 06:30:45;;;;;;;8.30;6.40;;;;;;;7.44;49.30;94149.94;1800464;78;22261;-57
2021/04/16 06:33:24;;;;;;;9.78;6.92;;;;;;;7.51;48.46;94149.69;1796977;78;21995;-56
2021/04/16 06:36:07;;;;;;;6.22;5.40;;;;;;;7.59;48.98;94164.69;1792400;78;22695;-54
2021/04/16 06:38:40;;;;;;;10.35;5.72;;;;;;;7.69;48.87;94149.11;1798507;78;21238;-57
2021/04/16 06:41:23;;;;;;;8.78;6.92;;;;;;;7.66;48.67;94156.23;1770574;79;21114;-56
2021/04/16 06:43:55;;;;;;;7.60;4.92;;;;;;;7.65;49.15;94160.77;1793151;78;21522;-58
2021/04/16 06:46:39;;;;;;;13.60;5.62;;;;;;;7.64;48.86;94165.48;1760222;79;21167;-60
2021/04/16 06:49:11;;;;;;;6.53;4.42;;;;;;;7.61;49.43;94160.91;1762740;79;22133;-59
2021/04/16 06:52:00;;;;;;;9.50;7.37;;;;;;;7.49;49.39;94164.42;1775514;79;21505;-57
2021/04/16 06:55:12;;;;;;;21.35;8.48;;;;;;;7.43;50.06;94166.20;1790185;79;21139;-54
2021/04/16 06:58:07;;;;;;;28.75;15.43;;;;;;;7.50;50.39;94172.80;1785726;78;21122;-59
2021/04/16 07:01:23;;;;;;;30.90;13.80;;;;;;;7.56;49.56;94171.02;1778313;78;21161;-57
2021/04/16 07:04:20;;;;;;;8.55;6.40;;;;;;;7.59;49.12;94172.90;1775933;78;21401;-58
2021/04/16 07:07:13;;;;;;;10.68;6.70;;;;;;;7.61;49.45;94175.95;1763244;79;21157;-59
2021/04/16 07:09:43;;;;;;;25.27;13.75;;;;;;;7.64;49.85;94171.55;1784128;78;21135;-59
2021/04/16 07:12:16;;;;;;;13.03;7.92;;;;;;;7.65;48.92;94188.14;1804515;78;21134;-60
2021/04/16 07:14:52;;;;;;;10.18;6.37;;;;;;;7.62;48.93;94184.92;1802539;78;21145;-60
2021/04/16 07:17:25;;;;;;;6.20;5.60;;;;;;;7.63;49.11;94183.71;1775710;79;21275;-61
2021/04/16 07:19:56;;;;;;;9.75;4.80;;;;;;;7.72;48.53;94181.08;1783731;78;21297;-61
2021/04/16 07:22:53;;;;;;;8.48;7.00;;;;;;;7.77;48.62;94185.39;1758216;79;21193;-59
2021/04/16 07:25:33;;;;;;;7.45;5.78;;;;;;;7.95;49.06;94184.19;1779097;78;21338;-61
2021/04/16 07:28:07;;;;;;;5.90;4.58;;;;;;;8.10;47.60;94187.94;1776535;78;21130;-62
2021/04/16 07:30:47;;;;;;;9.53;6.97;;;;;;;8.15;46.92;94192.87;1776096;79;22302;-58
2021/04/16 07:33:41;;;;;;;9.05;5.40;;;;;;;8.20;46.89;94190.95;1780899;78;22267;-66
2021/04/16 07:36:38;;;;;;;7.55;5.45;;;;;;;8.24;46.95;94194.33;1779763;78;21559;-62
2021/04/16 07:39:19;;;;;;;4.20;3.80;;;;;;;8.32;46.48;94191.52;1785472;79;21634;-65
2021/04/16 07:41:54;;;;;;;7.58;4.60;;;;;;;8.33;46.04;94201.27;1786282;79;21201;-65
2021/04/16 07:44:34;;;;;;;5.33;4.83;;;;;;;8.36;46.76;94194.89;1774195;79;21210;-60
2021/04/16 07:47:16;;;;;;;7.15;5.30;;;;;;;8.37;45.46;94207.38;1794252;78;21248;-59
2021/04/16 07:50:12;;;;;;;6.20;5.20;;;;;;;8.34;46.45;94199.27;1759377;79;21170;-61
2021/04/16 07:52:45;;;;;;;5.08;4.58;;;;;;;8.36;45.81;94197.62;1763557;79;21213;-59
2021/04/16 07:55:24;;;;;;;4.62;3.72;;;;;;;8.44;46.14;94199.51;1795773;78;21500;-62
2021/04/16 07:58:03;;;;;;;4.42;3.98;;;;;;;8.48;45.33;94207.77;1787670;78;21341;-57
2021/04/16 08:00:36;;;;;;;3.87;3.58;;;;;;;8.40;45.31;94207.10;1793189;78;21217;-59
2021/04/16 08:03:19;;;;;;;4.50;3.70;;;;;;;8.27;45.48;94204.39;1800830;78;21484;-60
2021/04/16 08:05:56;;;;;;;4.95;3.85;;;;;;;8.27;45.97;94200.28;1792789;78;21151;-65
2021/04/16 08:08:30;;;;;;;9.40;3.98;;;;;;;8.32;45.91;94195.63;1788435;79;21665;-63
2021/04/16 08:11:08;;;;;;;4.17;3.87;;;;;;;8.36;45.87;94208.59;1793755;79;21578;-61
2021/04/16 08:13:47;;;;;;;4.30;3.90;;;;;;;8.37;45.33;94207.97;1790668;79;21237;-60
2021/04/16 08:16:20;;;;;;;6.72;4.03;;;;;;;8.43;45.55;94202.84;1790417;79;21225;-61
2021/04/16 08:19:05;;;;;;;4.40;4.00;;;;;;;8.47;45.36;94208.95;1782186;79;21252;-59
2021/04/16 08:21:37;;;;;;;4.92;4.40;;;;;;;8.41;45.22;94212.12;1790609;78;21151;-57
2021/04/16 08:24:27;;;;;;;4.62;4.22;;;;;;;8.32;45.70;94207.95;1779244;79;21110;-62
2021/04/16 08:27:19;;;;;;;3.80;3.50;;;;;;;8.39;46.33;94204.95;1786742;78;21157;-60
2021/04/16 08:29:56;;;;;;;4.42;3.67;;;;;;;8.60;45.57;94215.14;1780229;79;21208;-60
2021/04/16 08:32:35;;;;;;;5.20;3.70;;;;;;;8.63;45.48;94214.87;1788171;79;21622;-56
2021/04/16 08:35:22;;;;;;;6.80;4.12;;;;;;;8.66;45.33;94202.38;1785182;79;21259;-59
2021/04/16 08:38:08;;;;;;;8.38;4.67;;;;;;;8.80;45.63;94207.34;1788600;78;21211;-58
2021/04/16 08:40:44;;;;;;;6.28;4.62;;;;;;;9.02;45.55;94213.56;1747935;79;21152;-58
2021/04/16 08:43:16;;;;;;;4.87;4.05;;;;;;;9.16;43.82;94203.42;1788585;79;21207;-57
2021/04/16 08:45:45;;;;;;;5.80;5.30;;;;;;;9.10;44.01;94216.20;1781817;79;21168;-56
2021/04/16 08:48:22;;;;;;;10.53;5.85;;;;;;;8.95;44.32;94221.47;1785415;79;21166;-59
2021/04/16 08:51:03;;;;;;;99.58;64.42;;;;;;;8.85;44.14;94212.27;1764080;79;22116;-58
2021/04/16 08:53:31;;;;;;;252.10;157.80;;;;;;;8.78;44.88;94226.23;1808504;78;21186;-56
2021/04/16 08:56:00;;;;;;;55.08;42.10;;;;;;;8.69;44.86;94226.19;1793398;78;21180;-57
2021/04/16 08:58:36;;;;;;;21.35;16.05;;;;;;;8.65;45.70;94219.30;1744712;79;21174;-56
2021/04/16 09:01:14;;;;;;;11.48;7.15;;;;;;;8.60;44.99;94220.62;1782368;79;21266;-57
2021/04/16 09:03:48;;;;;;;7.40;5.17;;;;;;;8.60;46.17;94229.47;1789660;79;21203;-57
2021/04/16 09:06:35;;;;;;;15.25;5.58;;;;;;;8.56;45.54;94228.81;1780197;79;21446;-57
2021/04/16 09:09:07;;;;;;;37.75;29.02;;;;;;;8.44;46.05;94224.92;1777831;80;21178;-58
2021/04/16 09:11:46;;;;;;;7.42;6.72;;;;;;;8.33;46.08;94219.08;1776539;80;21195;-57
2021/04/16 09:14:32;;;;;;;12.98;8.35;;;;;;;8.34;45.98;94228.83;1778783;79;21165;-56
2021/04/16 09:17:08;;;;;;;11.68;8.15;;;;;;;8.29;46.07;94233.48;1774991;80;21242;-56
2021/04/16 09:19:42;;;;;;;11.18;6.30;;;;;;;8.29;45.68;94234.10;1779062;80;21166;-57
2021/04/16 09:22:18;;;;;;;14.07;8.55;;;;;;;8.30;46.00;94237.00;1783030;79;21072;-60
2021/04/16 09:24:57;;;;;;;8.23;6.45;;;;;;;8.28;45.84;94240.17;1775268;80;21169;-59
2021/04/16 09:27:41;;;;;;;7.65;4.92;;;;;;;8.29;45.83;94238.97;1776737;80;21197;-58
2021/04/16 09:30:19;;;;;;;14.58;9.53;;;;;;;8.29;45.97;94235.47;1778760;80;21238;-59
2021/04/16 09:32:50;;;;;;;8.88;4.95;;;;;;;8.24;46.71;94240.91;1767906;80;21158;-57
2021/04/16 09:35:32;;;;;;;13.72;9.08;;;;;;;8.11;46.45;94241.52;1779270;80;21125;-55
2021/04/16 09:38:29;;;;;;;11.22;9.33;;;;;;;7.99;46.64;94242.34;1767997;79;22004;-56
2021/04/16 09:41:16;;;;;;;15.20;9.75;;;;;;;7.95;47.16;94244.44;1770028;80;21185;-58
2021/04/16 09:43:45;;;;;;;9.03;6.50;;;;;;;8.00;47.38;94246.61;1764814;79;22702;-60
2021/04/16 09:46:35;;;;;;;7.28;6.17;;;;;;;7.98;47.57;94245.51;1779722;79;21155;-56
2021/04/16 09:49:27;;;;;;;6.65;5.65;;;;;;;8.00;47.94;94251.30;1764716;81;22278;-56
2021/04/16 09:51:58;;;;;;;7.70;6.62;;;;;;;7.97;48.10;94251.60;1766774;81;21181;-57
2021/04/16 09:54:35;;;;;;;21.85;15.40;;;;;;;7.97;48.41;94257.08;1767727;80;21161;-55
2021/04/16 09:57:08;;;;;;;24.67;7.58;;;;;;;7.97;48.79;94248.86;1783485;80;21194;-57
2021/04/16 09:59:42;;;;;;;13.05;7.75;;;;;;;8.03;48.87;94240.86;1773317;80;21213;-56
2021/04/16 10:02:17;;;;;;;7.90;7.10;;;;;;;8.08;49.29;94249.26;1772804;80;21198;-60
2021/04/16 10:05:07;;;;;;;11.68;7.05;;;;;;;8.11;49.03;94248.98;1768125;79;21165;-59
2021/04/16 10:07:57;;;;;;;10.93;6.45;;;;;;;8.19;48.30;94255.18;1664073;85;21488;-58
2021/04/16 10:10:37;;;;;;;8.25;7.45;;;;;;;8.11;48.38;94253.84;1744424;78;21235;-59
2021/04/16 10:13:22;;;;;;;12.88;6.33;;;;;;;8.02;48.12;94254.36;1790375;78;21657;-59
2021/04/16 10:15:56;;;;;;;14.15;9.83;;;;;;;8.00;48.81;94251.30;1801973;79;21757;-59
2021/04/16 10:18:38;;;;;;;15.63;6.75;;;;;;;8.06;48.74;94256.41;1795901;78;21158;-59
2021/04/16 10:21:19;;;;;;;9.48;5.40;;;;;;;8.20;48.77;94253.97;1781863;80;21198;-60
2021/04/16 10:28:01;;;;;;;9.53;5.92;;;;;;;8.28;48.11;94251.14;1763290;79;21403;-58
2021/04/16 12:39:08;;;;;;;16.25;9.10;;;;;;;8.12;50.88;94326.63;1748212;80;21257;-59
2021/04/16 12:41:39;;;;;;;10.20;6.67;;;;;;;8.28;49.88;94327.86;1743223;81;21552;-58
2021/04/16 12:44:08;;;;;;;11.38;9.15;;;;;;;8.65;49.44;94321.50;1742989;80;21418;-58
2021/04/16 12:46:38;;;;;;;10.28;7.05;;;;;;;9.10;48.14;94323.22;1743938;81;21174;-58
2021/04/16 12:49:08;;;;;;;5.72;5.22;;;;;;;9.64;46.82;94324.89;1746779;80;21980;-60
2021/04/16 12:51:36;;;;;;;7.90;5.80;;;;;;;9.95;45.30;94331.89;1751332;81;21190;-60
2021/04/16 12:54:06;;;;;;;14.95;7.58;;;;;;;10.11;44.53;94325.39;1749210;81;21627;-59
2021/04/16 12:56:38;;;;;;;16.37;6.05;;;;;;;10.27;44.09;94325.13;1792197;78;21379;-58
2021/04/16 12:59:19;;;;;;;8.28;6.90;;;;;;;10.27;44.71;94327.28;1792542;78;21230;-59
2021/04/16 13:01:49;;;;;;;10.05;6.05;;;;;;;10.32;44.04;94322.55;1786775;78;21710;-59
2021/04/16 13:04:22;;;;;;;9.90;6.45;;;;;;;10.35;44.46;94320.89;1798770;78;21154;-59
2021/04/16 13:06:49;;;;;;;17.43;14.43;;;;;;;10.26;43.88;94326.35;1795222;78;21154;-59
2021/04/16 13:09:18;;;;;;;7.55;6.78;;;;;;;10.44;44.09;94322.27;1786327;79;21203;-56
2021/04/16 13:11:56;;;;;;;25.48;19.75;;;;;;;10.87;42.69;94335.92;1795613;78;21137;-56
2021/04/16 13:14:24;;;;;;;9.63;7.70;;;;;;;11.27;41.55;94323.33;1769166;80;21584;-61
2021/04/16 13:16:52;;;;;;;10.45;8.55;;;;;;;11.40;41.35;94313.70;1750555;80;21197;-58
2021/04/16 13:19:33;;;;;;;8.83;7.15;;;;;;;11.45;41.28;94325.45;1750533;80;21217;-57
2021/04/16 13:22:14;;;;;;;11.78;9.23;;;;;;;11.26;40.96;94322.59;1788959;78;22390;-58
2021/04/16 13:24:43;;;;;;;10.32;5.37;;;;;;;11.36;41.45;94317.20;1799928;78;21206;-60
2021/04/16 13:27:15;;;;;;;5.45;4.65;;;;;;;11.59;40.29;94328.98;1794297;78;21186;-61
2021/04/16 13:29:43;;;;;;;9.90;6.72;;;;;;;11.57;39.74;94316.25;1795171;78;21159;-59
2021/04/16 13:32:16;;;;;;;6.80;5.95;;;;;;;11.80;39.99;94327.99;1800425;78;21113;-58
2021/04/16 13:34:44;;;;;;;6.17;5.10;;;;;;;12.28;39.22;94326.09;1749262;78;21373;-57
2021/04/16 13:37:21;;;;;;;4.50;4.10;;;;;;;12.44;38.16;94325.07;1799750;78;21833;-59
2021/04/16 13:39:49;;;;;;;6.05;4.47;;;;;;;12.15;38.78;94324.16;1784792;78;21685;-56
2021/04/16 13:42:17;;;;;;;5.90;5.03;;;;;;;11.78;39.55;94329.08;1786235;79;21160;-58
2021/04/16 13:44:48;;;;;;;10.20;5.37;;;;;;;11.56;40.22;94325.75;1797297;78;21619;-58
2021/04/16 13:47:24;;;;;;;17.57;9.38;;;;;;;11.36;40.81;94332.34;1772029;79;22244;-58
2021/04/16 13:49:58;;;;;;;5.92;5.30;;;;;;;11.18;41.37;94329.62;1741222;80;21934;-59
2021/04/16 13:52:26;;;;;;;8.28;5.70;;;;;;;11.20;40.93;94329.92;1751998;80;21190;-58
2021/04/16 13:54:55;;;;;;;9.20;5.67;;;;;;;11.58;40.86;94332.96;1796880;78;21165;-60
2021/04/16 13:57:23;;;;;;;6.58;5.87;;;;;;;12.41;39.40;94340.44;1805390;78;21146;-59
2021/04/16 13:59:51;;;;;;;5.22;4.72;;;;;;;13.29;37.53;94338.89;1805346;78;21197;-57
2021/04/16 14:02:25;;;;;;;8.68;4.42;;;;;;;13.73;36.82;94349.36;1793299;78;21154;-57
2021/04/16 14:04:53;;;;;;;12.05;5.78;;;;;;;13.49;37.03;94339.02;1794657;78;21165;-56
2021/04/16 14:07:21;;;;;;;14.78;6.08;;;;;;;12.99;37.68;94335.31;1802596;78;21121;-55
2021/04/16 14:09:50;;;;;;;7.37;5.60;;;;;;;12.58;38.70;94338.17;1794645;78;21210;-61
2021/04/16 14:12:18;;;;;;;10.20;8.70;;;;;;;12.30;38.64;94345.06;1785858;80;21418;-56